createdAt,value
2023-03-05T00:01:24.311Z,16.10
2023-03-05T00:03:53.771Z,16.75
2023-03-05T00:06:26.672Z,15.23
2023-03-05T00:08:56.854Z,15.85
2023-03-05T00:11:27.994Z,15.50
2023-03-05T00:13:56.484Z,16.17
2023-03-05T00:16:26.884Z,13.77
2023-03-05T00:18:59.027Z,15.23
2023-03-05T00:21:33.037Z,17.35
2023-03-05T00:24:02.395Z,13.03
2023-03-05T00:26:30.754Z,13.93
2023-03-05T00:28:58.885Z,13.00
2023-03-05T00:31:31.950Z,15.32
2023-03-05T00:34:02.752Z,15.27
2023-03-05T00:36:30.552Z,15.87
2023-03-05T00:38:59.257Z,16.62
2023-03-05T00:41:28.109Z,18.23
2023-03-05T00:43:56.062Z,16.83
2023-03-05T00:46:24.348Z,15.98
2023-03-05T00:48:52.256Z,12.50
2023-03-05T00:51:20.981Z,13.70
2023-03-05T00:53:48.519Z,12.63
2023-03-05T00:56:16.278Z,13.98
2023-03-05T00:58:44.046Z,13.43
2023-03-05T01:01:12.357Z,15.43
2023-03-05T01:03:40.739Z,14.77
2023-03-05T01:06:11.340Z,15.60
2023-03-05T01:08:40.101Z,14.10
2023-03-05T01:11:09.148Z,15.35
2023-03-05T01:13:37.409Z,13.50
2023-03-05T01:16:05.670Z,11.98
2023-03-05T01:18:33.999Z,13.27
2023-03-05T01:21:01.649Z,14.75
2023-03-05T01:23:29.136Z,16.27
2023-03-05T01:25:58.955Z,12.57
2023-03-05T01:28:27.600Z,14.98
2023-03-05T01:30:55.297Z,17.52
2023-03-05T01:33:23.397Z,12.85
2023-03-05T01:35:51.397Z,15.23
2023-03-05T01:38:19.257Z,16.30
2023-03-05T01:40:47.121Z,15.52
2023-03-05T01:43:27.430Z,14.48
2023-03-05T01:46:13.516Z,16.58
2023-03-05T01:48:42.949Z,16.00
2023-03-05T01:51:10.776Z,14.67
2023-03-05T01:53:38.293Z,14.07
2023-03-05T01:56:06.041Z,14.98
2023-03-05T01:58:34.284Z,15.75
2023-03-05T02:01:02.149Z,16.40
2023-03-05T02:03:30.063Z,13.03
2023-03-05T02:05:57.923Z,14.35
2023-03-05T02:08:25.681Z,13.98
2023-03-05T02:10:56.390Z,14.05
2023-03-05T02:13:27.956Z,16.73
2023-03-05T02:15:58.364Z,12.80
2023-03-05T02:18:26.295Z,14.80
2023-03-05T02:20:56.882Z,14.60
2023-03-05T02:23:36.534Z,14.20
2023-03-05T02:26:06.002Z,12.90
2023-03-05T02:28:38.068Z,14.23
2023-03-05T02:31:20.124Z,14.68
2023-03-05T02:33:48.352Z,15.52
2023-03-05T02:36:16.746Z,14.20
2023-03-05T02:38:45.676Z,17.30
2023-03-05T02:41:14.309Z,13.53
2023-03-05T02:43:42.512Z,15.90
2023-03-05T02:46:10.337Z,15.48
2023-03-05T02:48:39.956Z,11.95
2023-03-05T02:51:08.508Z,13.60
2023-03-05T02:53:36.109Z,16.17
2023-03-05T02:56:04.585Z,14.10
2023-03-05T02:58:33.582Z,14.87
2023-03-05T03:01:01.229Z,12.18
2023-03-05T03:03:29.447Z,11.80
2023-03-05T03:05:56.917Z,12.97
2023-03-05T03:08:24.462Z,16.00
2023-03-05T03:10:52.555Z,16.27
2023-03-05T03:13:20.057Z,16.00
2023-03-05T03:15:48.910Z,14.38
2023-03-05T03:18:17.041Z,15.03
2023-03-05T03:20:44.630Z,15.35
2023-03-05T03:23:12.123Z,12.95
2023-03-05T03:25:39.900Z,12.25
2023-03-05T03:28:07.536Z,11.82
2023-03-05T03:30:35.226Z,12.27
2023-03-05T03:33:03.736Z,14.70
2023-03-05T03:35:31.274Z,11.77
2023-03-05T03:37:58.772Z,12.45
2023-03-05T03:40:26.598Z,14.15
2023-03-05T03:42:54.707Z,13.33
2023-03-05T03:45:22.294Z,10.63
2023-03-05T03:47:50.814Z,12.32
2023-03-05T03:50:18.779Z,14.48
2023-03-05T03:52:46.321Z,14.30
2023-03-05T03:55:14.258Z,13.70
2023-03-05T03:57:41.712Z,14.32
2023-03-05T04:00:11.398Z,13.93
2023-03-05T04:02:39.768Z,16.98
2023-03-05T04:05:08.688Z,12.48
2023-03-05T04:07:36.344Z,13.80
2023-03-05T04:10:04.426Z,14.75
2023-03-05T04:12:32.587Z,14.77
2023-03-05T04:15:00.109Z,15.32
2023-03-05T04:17:27.646Z,14.55
2023-03-05T04:19:55.418Z,14.13
2023-03-05T04:22:22.998Z,13.40
2023-03-05T04:24:50.538Z,17.17
2023-03-05T04:27:18.340Z,12.60
2023-03-05T04:29:46.012Z,14.45
2023-03-05T04:32:13.716Z,15.67
2023-03-05T04:34:41.685Z,21.62
2023-03-05T04:37:09.178Z,15.98
2023-03-05T04:39:37.088Z,16.45
2023-03-05T04:42:05.110Z,19.02
2023-03-05T04:44:32.809Z,17.67
2023-03-05T04:47:00.462Z,17.55
2023-03-05T04:49:28.306Z,17.00
2023-03-05T04:51:57.506Z,18.62
2023-03-05T04:54:25.182Z,19.50
2023-03-05T04:56:52.936Z,15.90
2023-03-05T04:59:20.437Z,15.50
2023-03-05T05:01:47.944Z,20.08
2023-03-05T05:04:15.865Z,14.80
2023-03-05T05:06:43.321Z,14.32
2023-03-05T05:09:10.960Z,14.07
2023-03-05T05:11:40.069Z,21.50
2023-03-05T05:14:07.709Z,15.45
2023-03-05T05:16:35.270Z,16.42
2023-03-05T05:19:03.848Z,15.63
2023-03-05T05:21:31.398Z,15.47
2023-03-05T05:23:58.956Z,16.00
2023-03-05T05:26:27.027Z,14.73
2023-03-05T05:28:55.366Z,16.42
2023-03-05T05:31:22.954Z,17.55
2023-03-05T05:33:50.902Z,17.87
2023-03-05T05:36:22.497Z,17.25
2023-03-05T05:38:50.282Z,15.88
2023-03-05T05:41:19.290Z,15.98
2023-03-05T05:43:47.282Z,15.52
2023-03-05T05:46:17.391Z,16.33
2023-03-05T05:48:45.381Z,16.02
2023-03-05T05:51:21.764Z,16.85
2023-03-05T05:53:49.791Z,16.02
2023-03-05T05:56:18.035Z,17.02
2023-03-05T05:58:47.797Z,13.87
2023-03-05T06:01:30.894Z,20.67
2023-03-05T06:03:59.037Z,18.42
2023-03-05T06:06:27.841Z,17.75
2023-03-05T06:08:55.933Z,17.48
2023-03-05T06:11:23.992Z,17.53
2023-03-05T06:13:51.541Z,18.83
2023-03-05T06:16:24.005Z,16.20
2023-03-05T06:18:52.803Z,17.35
2023-03-05T06:21:21.950Z,16.62
2023-03-05T06:23:50.418Z,18.10
2023-03-05T06:26:20.810Z,16.27
2023-03-05T06:28:48.485Z,15.30
2023-03-05T06:31:19.008Z,17.15
2023-03-05T06:33:46.763Z,15.18
2023-03-05T06:36:16.807Z,16.00
2023-03-05T06:38:44.736Z,20.90
2023-03-05T06:41:16.749Z,15.88
2023-03-05T06:43:46.076Z,17.45
2023-03-05T06:46:23.252Z,16.37
2023-03-05T06:48:51.826Z,16.53
2023-03-05T06:51:22.554Z,16.62
2023-03-05T06:53:50.954Z,16.62
2023-03-05T06:56:19.542Z,17.35
2023-03-05T06:58:48.906Z,17.65
2023-03-05T07:01:16.724Z,17.57
2023-03-05T07:03:45.044Z,15.88
2023-03-05T07:06:14.411Z,15.05
2023-03-05T07:08:42.311Z,17.02
2023-03-05T07:11:17.882Z,15.15
2023-03-05T07:13:47.865Z,15.13
2023-03-05T07:16:21.821Z,19.95
2023-03-05T07:18:49.883Z,16.87
2023-03-05T07:21:19.778Z,14.27
2023-03-05T07:23:48.178Z,16.60
2023-03-05T07:26:16.229Z,16.83
2023-03-05T07:28:44.249Z,15.23
2023-03-05T07:31:19.884Z,16.05
2023-03-05T07:33:51.077Z,15.40
2023-03-05T07:36:21.593Z,15.95
2023-03-05T07:38:49.374Z,15.93
2023-03-05T07:41:23.509Z,16.40
2023-03-05T07:43:53.126Z,18.27
2023-03-05T07:46:23.334Z,17.33
2023-03-05T07:48:51.361Z,20.98
2023-03-05T07:51:20.151Z,17.40
2023-03-05T07:53:49.726Z,18.25
2023-03-05T07:56:31.692Z,17.02
2023-03-05T07:59:00.173Z,16.55
2023-03-05T08:01:29.372Z,17.20
2023-03-05T08:03:57.317Z,15.23
2023-03-05T08:06:24.920Z,16.77
2023-03-05T08:08:52.528Z,13.00
2023-03-05T08:11:20.477Z,20.62
2023-03-05T08:13:48.180Z,15.77
2023-03-05T08:16:20.438Z,19.27
2023-03-05T08:18:48.725Z,17.10
2023-03-05T08:21:21.459Z,17.50
2023-03-05T08:23:49.563Z,17.80
2023-03-05T08:26:19.883Z,18.00
2023-03-05T08:28:48.365Z,20.70
2023-03-05T08:31:17.788Z,15.70
2023-03-05T08:33:45.384Z,18.95
2023-03-05T08:36:13.410Z,16.87
2023-03-05T08:38:42.040Z,15.43
2023-03-05T08:41:09.655Z,17.40
2023-03-05T08:43:37.224Z,17.23
2023-03-05T08:46:05.496Z,19.12
2023-03-05T08:48:33.553Z,15.15
2023-03-05T08:51:08.977Z,17.77
2023-03-05T08:53:36.981Z,17.77
2023-03-05T08:56:04.881Z,19.83
2023-03-05T08:58:33.208Z,19.08
2023-03-05T09:01:01.420Z,18.62
2023-03-05T09:03:28.967Z,17.27
2023-03-05T09:06:01.492Z,15.90
2023-03-05T09:08:30.010Z,15.82
2023-03-05T09:10:57.815Z,17.50
2023-03-05T09:13:25.573Z,17.08
2023-03-05T09:16:01.830Z,17.35
2023-03-05T09:18:29.654Z,16.97
2023-03-05T09:20:57.705Z,17.42
2023-03-05T09:23:25.366Z,15.32
2023-03-05T09:25:52.972Z,16.70
2023-03-05T09:28:20.865Z,18.27
2023-03-05T09:30:48.920Z,18.70
2023-03-05T09:33:16.879Z,18.70
2023-03-05T09:35:44.887Z,17.98
2023-03-05T09:38:12.460Z,17.50
2023-03-05T09:40:53.815Z,13.82
2023-03-05T09:43:31.401Z,19.77
2023-03-05T09:46:22.936Z,16.77
2023-03-05T09:49:12.452Z,15.48
2023-03-05T09:51:42.057Z,20.45
2023-03-05T09:54:14.068Z,16.40
2023-03-05T09:56:45.050Z,18.53
2023-03-05T09:59:28.584Z,18.15
2023-03-05T10:01:59.937Z,16.58
2023-03-05T10:04:29.444Z,16.25
2023-03-05T10:07:02.797Z,14.50
2023-03-05T10:09:43.140Z,18.07
2023-03-05T10:12:42.946Z,16.95
2023-03-05T10:15:17.002Z,17.30
2023-03-05T10:17:49.999Z,15.25
2023-03-05T10:20:46.079Z,14.82
2023-03-05T10:23:29.344Z,14.90
2023-03-05T10:26:20.839Z,15.63
2023-03-05T10:29:07.278Z,14.93
2023-03-05T10:31:50.530Z,14.93
2023-03-05T10:34:33.811Z,13.15
2023-03-05T10:37:16.689Z,14.57
2023-03-05T10:40:25.833Z,16.40
2023-03-05T10:43:12.079Z,15.02
2023-03-05T10:45:43.376Z,15.18
2023-03-05T10:48:47.273Z,14.82
2023-03-05T10:51:22.777Z,15.80
2023-03-05T10:54:02.442Z,16.12
2023-03-05T10:56:31.838Z,17.83
2023-03-05T10:58:59.620Z,15.25
2023-03-05T11:01:29.642Z,15.27
2023-03-05T11:04:04.726Z,15.50
2023-03-05T11:06:34.006Z,12.57
2023-03-05T11:09:24.322Z,15.13
2023-03-05T11:12:11.789Z,16.75
2023-03-05T11:14:43.078Z,14.30
2023-03-05T11:17:44.763Z,12.90
2023-03-05T11:20:27.370Z,15.77
2023-03-05T11:23:05.859Z,14.73
2023-03-05T11:25:34.635Z,15.85
2023-03-05T11:28:04.049Z,12.90
2023-03-05T11:30:36.486Z,13.53
2023-03-05T11:33:08.862Z,14.55
2023-03-05T11:35:41.014Z,14.98
2023-03-05T11:38:19.606Z,13.62
2023-03-05T11:40:47.882Z,15.07
2023-03-05T11:43:18.573Z,14.13
2023-03-05T11:45:49.209Z,14.27
2023-03-05T11:48:24.806Z,13.45
2023-03-05T11:50:55.620Z,12.20
2023-03-05T11:53:29.522Z,11.68
2023-03-05T11:56:25.172Z,12.53
2023-03-05T11:59:03.751Z,11.18
2023-03-05T12:01:33.906Z,12.82
2023-03-05T12:04:02.173Z,11.43
2023-03-05T12:06:57.804Z,11.45
2023-03-05T12:09:43.474Z,12.03
2023-03-05T12:13:02.139Z,10.95
2023-03-05T12:15:47.746Z,13.45
2023-03-05T12:18:36.494Z,12.18
2023-03-05T12:21:32.895Z,12.73
2023-03-05T12:24:02.437Z,10.47
2023-03-05T12:26:56.400Z,12.15
2023-03-05T12:29:31.283Z,13.48
2023-03-05T12:32:01.006Z,12.75
2023-03-05T12:34:41.851Z,11.60
2023-03-05T12:37:22.014Z,10.83
2023-03-05T12:39:58.669Z,10.15
2023-03-05T12:42:29.759Z,12.73
2023-03-05T12:45:30.621Z,11.02
2023-03-05T12:47:58.375Z,10.30
2023-03-05T12:50:28.857Z,10.67
2023-03-05T12:53:05.006Z,10.93
2023-03-05T12:55:47.720Z,11.38
2023-03-05T12:58:36.075Z,10.13
2023-03-05T13:01:14.374Z,9.77
2023-03-05T13:04:19.809Z,13.70
2023-03-05T13:06:58.714Z,13.32
2023-03-05T13:09:29.958Z,9.55
2023-03-05T13:11:58.435Z,9.77
2023-03-05T13:14:28.415Z,11.38
2023-03-05T13:16:56.314Z,10.07
2023-03-05T13:19:24.258Z,10.20
2023-03-05T13:22:00.773Z,10.23
2023-03-05T13:24:30.047Z,10.02
2023-03-05T13:26:57.582Z,12.10
2023-03-05T13:29:28.189Z,9.23
2023-03-05T13:32:00.973Z,11.75
2023-03-05T13:34:46.271Z,9.50
2023-03-05T13:37:19.455Z,9.85
2023-03-05T13:39:52.106Z,9.23
2023-03-05T13:42:32.403Z,11.33
2023-03-05T13:45:02.545Z,12.77
2023-03-05T13:47:33.160Z,11.20
2023-03-05T13:50:04.846Z,10.60
2023-03-05T13:52:38.275Z,11.88
2023-03-05T13:55:14.715Z,13.03
2023-03-05T13:57:49.959Z,10.65
2023-03-05T14:00:35.192Z,9.60
2023-03-05T14:03:23.941Z,10.23
2023-03-05T14:05:51.555Z,10.05
2023-03-05T14:08:24.353Z,10.23
2023-03-05T14:10:53.315Z,11.48
2023-03-05T14:13:23.805Z,13.18
2023-03-05T14:16:07.467Z,10.73
2023-03-05T14:18:36.209Z,11.55
2023-03-05T14:21:03.686Z,11.47
2023-03-05T14:23:47.139Z,10.77
2023-03-05T14:26:36.338Z,16.62
2023-03-05T14:29:07.132Z,11.32
2023-03-05T14:31:51.729Z,10.20
2023-03-05T14:34:26.454Z,8.53
2023-03-05T14:36:56.537Z,11.55
2023-03-05T14:39:35.936Z,9.77
2023-03-05T14:42:39.060Z,10.27
2023-03-05T14:45:15.037Z,10.57
2023-03-05T14:47:43.021Z,10.60
2023-03-05T14:50:22.150Z,11.20
2023-03-05T14:52:52.311Z,12.70
2023-03-05T14:55:24.041Z,10.95
2023-03-05T14:57:55.924Z,9.02
2023-03-05T15:00:25.905Z,13.13
2023-03-05T15:02:53.835Z,9.27
2023-03-05T15:05:21.843Z,10.48
2023-03-05T15:07:49.897Z,10.43
2023-03-05T15:10:19.784Z,11.23
2023-03-05T15:12:47.643Z,9.77
2023-03-05T15:15:15.322Z,12.02
2023-03-05T15:17:47.400Z,9.80
2023-03-05T15:20:20.559Z,10.57
2023-03-05T15:22:49.779Z,9.48
2023-03-05T15:25:19.036Z,9.67
2023-03-05T15:27:47.030Z,10.77
2023-03-05T15:30:31.122Z,11.05
2023-03-05T15:33:02.320Z,9.57
2023-03-05T15:35:30.228Z,8.43
2023-03-05T15:38:00.683Z,9.97
2023-03-05T15:40:28.736Z,10.25
2023-03-05T15:42:57.474Z,10.00
2023-03-05T15:45:25.346Z,10.80
2023-03-05T15:47:53.562Z,11.70
2023-03-05T15:50:21.898Z,9.77
2023-03-05T15:52:49.489Z,9.68
2023-03-05T15:55:22.806Z,11.15
2023-03-05T15:57:52.212Z,11.23
2023-03-05T16:00:25.801Z,9.68
2023-03-05T16:02:54.119Z,10.30
2023-03-05T16:05:21.784Z,11.23
2023-03-05T16:07:51.804Z,8.38
2023-03-05T16:10:23.151Z,11.35
2023-03-05T16:12:57.936Z,9.48
2023-03-05T16:15:25.833Z,8.47
2023-03-05T16:17:55.021Z,10.23
2023-03-05T16:20:23.134Z,8.20
2023-03-05T16:22:51.040Z,9.82
2023-03-05T16:25:18.641Z,9.10
2023-03-05T16:27:46.253Z,8.63
2023-03-05T16:30:17.655Z,8.95
2023-03-05T16:32:45.420Z,9.57
2023-03-05T16:35:13.738Z,10.00
2023-03-05T16:37:44.454Z,9.02
2023-03-05T16:40:12.881Z,9.23
2023-03-05T16:42:40.493Z,7.72
2023-03-05T16:45:09.380Z,8.07
2023-03-05T16:47:36.972Z,7.55
2023-03-05T16:50:04.802Z,8.88
2023-03-05T16:52:32.745Z,8.50
2023-03-05T16:55:00.446Z,8.75
2023-03-05T16:57:29.016Z,8.82
2023-03-05T16:59:58.486Z,7.80
2023-03-05T17:02:26.053Z,8.23
2023-03-05T17:04:54.320Z,9.97
2023-03-05T17:07:22.122Z,9.18
2023-03-05T17:09:50.502Z,9.73
2023-03-05T17:12:17.968Z,9.02
2023-03-05T17:14:45.863Z,8.80
2023-03-05T17:17:13.603Z,10.10
2023-03-05T17:19:41.304Z,9.60
2023-03-05T17:22:10.556Z,8.20
2023-03-05T17:24:38.630Z,10.13
2023-03-05T17:27:06.516Z,10.50
2023-03-05T17:29:34.105Z,9.20
2023-03-05T17:32:02.205Z,11.05
2023-03-05T17:34:35.966Z,9.75
2023-03-05T17:37:05.300Z,11.27
2023-03-05T17:39:33.688Z,10.93
2023-03-05T17:42:01.572Z,10.20
2023-03-05T17:44:29.487Z,11.63
2023-03-05T17:46:57.050Z,10.35
2023-03-05T17:49:24.591Z,8.40
2023-03-05T17:51:52.633Z,8.95
2023-03-05T17:54:20.286Z,11.03
2023-03-05T17:56:48.110Z,9.60
2023-03-05T17:59:16.447Z,9.77
2023-03-05T18:01:44.027Z,11.82
2023-03-05T18:04:12.874Z,11.88
2023-03-05T18:06:40.879Z,11.23
2023-03-05T18:09:08.731Z,13.82
2023-03-05T18:11:36.529Z,12.65
2023-03-05T18:14:04.384Z,9.80
2023-03-05T18:16:31.998Z,9.75
2023-03-05T18:18:59.872Z,13.87
2023-03-05T18:21:28.186Z,12.13
2023-03-05T18:23:55.845Z,12.15
2023-03-05T18:26:23.666Z,11.45
2023-03-05T18:28:51.404Z,10.20
2023-03-05T18:31:19.433Z,10.87
2023-03-05T18:33:47.231Z,8.88
2023-03-05T18:36:15.132Z,8.93
2023-03-05T18:38:42.962Z,12.57
2023-03-05T18:41:22.696Z,13.00
2023-03-05T18:43:50.720Z,12.70
2023-03-05T18:46:18.742Z,18.35
2023-03-05T18:48:48.088Z,9.77
2023-03-05T18:51:19.127Z,9.95
2023-03-05T18:53:47.040Z,12.10
2023-03-05T18:56:14.563Z,9.73
2023-03-05T18:58:42.078Z,9.70
2023-03-05T19:01:09.942Z,12.27
2023-03-05T19:03:37.671Z,8.55
2023-03-05T19:06:09.376Z,12.45
2023-03-05T19:08:37.317Z,12.87
2023-03-05T19:11:22.700Z,11.80
2023-03-05T19:13:51.792Z,11.95
2023-03-05T19:16:22.451Z,9.85
2023-03-05T19:19:18.850Z,10.23
2023-03-05T19:21:48.339Z,9.37
2023-03-05T19:24:17.259Z,10.23
2023-03-05T19:26:45.207Z,8.10
2023-03-05T19:29:13.126Z,12.23
2023-03-05T19:31:41.674Z,11.55
2023-03-05T19:34:09.340Z,13.00
2023-03-05T19:36:37.095Z,10.13
2023-03-05T19:39:06.348Z,17.90
2023-03-05T19:41:34.337Z,13.82
2023-03-05T19:44:02.456Z,11.45
2023-03-05T19:46:30.895Z,14.37
2023-03-05T19:48:58.766Z,11.48
2023-03-05T19:51:26.975Z,11.40
2023-03-05T19:53:55.631Z,9.68
2023-03-05T19:56:23.243Z,11.38
2023-03-05T19:58:51.031Z,9.60
2023-03-05T20:01:22.089Z,8.52
2023-03-05T20:03:51.932Z,9.75
2023-03-05T20:06:20.873Z,11.18
2023-03-05T20:08:48.621Z,11.20
2023-03-05T20:11:17.914Z,9.73
2023-03-05T20:13:45.858Z,10.75
2023-03-05T20:16:21.431Z,11.00
2023-03-05T20:18:54.769Z,11.70
2023-03-05T20:21:25.502Z,9.95
2023-03-05T20:23:55.675Z,10.87
2023-03-05T20:26:25.820Z,9.52
2023-03-05T20:28:55.045Z,11.75
2023-03-05T20:31:24.416Z,8.70
2023-03-05T20:33:51.989Z,10.38
2023-03-05T20:36:19.849Z,9.00
2023-03-05T20:38:47.542Z,11.05
2023-03-05T20:41:17.600Z,8.38
2023-03-05T20:43:48.905Z,8.80
2023-03-05T20:46:34.124Z,10.73
2023-03-05T20:49:03.987Z,11.30
2023-03-05T20:51:37.862Z,17.45
2023-03-05T20:54:11.646Z,11.12
2023-03-05T20:56:39.654Z,11.65
2023-03-05T20:59:08.936Z,9.93
2023-03-05T21:01:39.003Z,11.43
2023-03-05T21:04:07.383Z,11.25
2023-03-05T21:06:35.107Z,10.07
2023-03-05T21:09:03.730Z,11.88
2023-03-05T21:11:32.287Z,12.73
2023-03-05T21:13:59.807Z,10.50
2023-03-05T21:16:28.113Z,10.18
2023-03-05T21:18:57.221Z,14.05
2023-03-05T21:21:25.707Z,15.27
2023-03-05T21:23:53.616Z,16.05
2023-03-05T21:26:22.099Z,14.33
2023-03-05T21:28:49.635Z,14.20
2023-03-05T21:31:19.963Z,15.05
2023-03-05T21:33:48.997Z,21.55
2023-03-05T21:36:19.302Z,24.17
2023-03-05T21:38:48.085Z,27.03
2023-03-05T21:41:18.106Z,28.85
2023-03-05T21:43:45.765Z,23.60
2023-03-05T21:46:13.276Z,16.90
2023-03-05T21:48:41.143Z,14.70
2023-03-05T21:52:05.126Z,12.50
2023-03-05T21:54:32.876Z,15.35
2023-03-05T21:57:00.521Z,14.38
2023-03-05T21:59:32.423Z,11.12
2023-03-05T22:02:00.439Z,12.23
2023-03-05T22:04:28.202Z,11.57
2023-03-05T22:06:56.948Z,11.68
2023-03-05T22:09:24.404Z,13.02
2023-03-05T22:11:52.223Z,11.65
2023-03-05T22:14:19.718Z,10.98
2023-03-05T22:16:47.404Z,11.43
2023-03-05T22:19:15.376Z,9.95
2023-03-05T22:21:42.857Z,12.07
2023-03-05T22:24:10.435Z,10.38
2023-03-05T22:26:39.937Z,10.95
2023-03-05T22:29:09.711Z,13.70
2023-03-05T22:31:37.766Z,10.55
2023-03-05T22:34:05.491Z,12.88
2023-03-05T22:36:32.934Z,11.18
2023-03-05T22:39:00.474Z,13.27
2023-03-05T22:41:28.390Z,13.33
2023-03-05T22:43:55.964Z,12.37
2023-03-05T22:46:25.605Z,14.00
2023-03-05T22:48:53.912Z,11.12
2023-03-05T22:51:21.869Z,11.70
2023-03-05T22:53:49.542Z,12.20
2023-03-05T22:56:19.516Z,11.60
2023-03-05T22:58:47.055Z,12.60
2023-03-05T23:01:19.596Z,11.50
2023-03-05T23:04:49.359Z,14.25
2023-03-05T23:07:19.381Z,12.90
2023-03-05T23:10:02.437Z,13.38
2023-03-05T23:12:32.602Z,12.68
2023-03-05T23:15:01.708Z,13.13
2023-03-05T23:17:29.725Z,12.93
2023-03-05T23:19:57.212Z,10.60
2023-03-05T23:22:25.030Z,13.27
2023-03-05T23:24:52.552Z,16.42
2023-03-05T23:27:20.037Z,13.43
2023-03-05T23:30:21.543Z,13.02
2023-03-05T23:32:50.675Z,12.60
2023-03-05T23:35:36.585Z,13.80
2023-03-05T23:38:08.188Z,11.73
2023-03-05T23:40:40.005Z,10.75
2023-03-05T23:43:07.879Z,11.85
2023-03-05T23:45:35.948Z,15.07
2023-03-05T23:48:03.922Z,13.82
2023-03-05T23:50:33.640Z,12.48
2023-03-05T23:53:02.403Z,12.73
2023-03-05T23:55:34.207Z,12.40
2023-03-05T23:58:02.639Z,14.13
